Airport View

Enter AWOS ICAO identifier for current METAR.

ex. KFNL

KBOK 261056Z AUTO 00000KT 10SM OVC065 12/08 A2991 RMK AO2 SLP129 T01170083

26 Jun 2019 11:49

Frequency: 132.025

Phone: 541-412-8682

Other Area AWOS: KCEC - K4S1 - K3S8 - KSXT

TAF KCEC 260541Z 2606/2706 31003KT 3SM BR SCT002 TEMPO 2608/2612 6SM BR BKN003 FM261200 13004KT 6SM BR BKN004 FM261500 15004KT P6SM VCSH BKN010 OVC050 FM261800 16009KT 6SM -RA BR BKN025 OVC035 FM262100 17010KT 5SM -RA BR SCT007 OVC012